Time;durP1;ratioP1;P1;durP2;ratioP2;P2;SDS_P1;SDS_P2;PMS_P1;PMS_P2;Temp;Humidity;BMP_temperature;BMP_pressure;BME280_temperature;BME280_humidity;BME280_pressure;Samples;Min_cycle;Max_cycle;Signal;HPM_P1;HPM_P2
2022/06/22 00:01:20;;;;;;;8.43;6.03;;;;;;;25.45;54.70;96921.94;5066593;28;20440;-73
2022/06/22 00:03:59;;;;;;;10.67;6.13;;;;;;;25.48;54.87;96913.34;5058602;28;20668;-73
2022/06/22 00:06:32;;;;;;;7.00;5.83;;;;;;;25.54;54.62;96908.84;5060921;28;20467;-72
2022/06/22 00:08:59;;;;;;;9.13;6.13;;;;;;;25.56;54.20;96904.88;5051878;28;20941;-72
2022/06/22 00:11:26;;;;;;;6.93;6.07;;;;;;;25.53;54.92;96902.69;5067647;28;20437;-73
2022/06/22 00:13:55;;;;;;;10.63;6.60;;;;;;;25.44;54.76;96888.13;5060181;28;20448;-74
2022/06/22 00:16:46;;;;;;;16.37;6.63;;;;;;;25.37;54.97;96874.91;5067410;28;20473;-73
2022/06/22 00:19:39;;;;;;;13.17;6.10;;;;;;;25.35;54.71;96870.84;5060050;28;20425;-73
2022/06/22 00:22:05;;;;;;;7.60;5.60;;;;;;;25.40;54.51;96860.16;5067913;28;20421;-72
2022/06/22 00:24:36;;;;;;;9.53;6.23;;;;;;;25.39;54.21;96855.88;5062216;28;20422;-74
2022/06/22 00:27:15;;;;;;;9.60;6.10;;;;;;;25.42;54.56;96839.31;5056227;28;20206;-73
2022/06/22 00:29:41;;;;;;;10.87;5.87;;;;;;;25.35;54.66;96834.13;5054383;28;20454;-73
2022/06/22 00:32:17;;;;;;;9.00;6.30;;;;;;;25.35;54.64;96833.31;5062057;28;20420;-73
2022/06/22 00:34:42;;;;;;;6.73;5.80;;;;;;;25.41;54.29;96830.44;5061393;28;20190;-73
2022/06/22 00:37:16;;;;;;;6.70;5.67;;;;;;;25.38;54.28;96822.06;5053415;28;20506;-73
2022/06/22 00:39:51;;;;;;;8.10;6.17;;;;;;;25.25;55.05;96824.13;5050846;28;20182;-73
2022/06/22 00:42:39;;;;;;;8.00;6.00;;;;;;;25.16;54.88;96825.66;5064022;28;20424;-72
2022/06/22 00:45:11;;;;;;;8.47;5.67;;;;;;;25.15;55.02;96837.44;5064501;28;20474;-72
2022/06/22 00:47:44;;;;;;;7.13;5.90;;;;;;;25.16;54.46;96839.06;5061053;28;20422;-73
2022/06/22 00:50:09;;;;;;;10.43;6.07;;;;;;;25.17;54.73;96839.88;5051059;28;20800;-72
2022/06/22 00:52:36;;;;;;;9.23;6.47;;;;;;;25.19;54.32;96851.16;5057700;28;20499;-74
2022/06/22 00:55:03;;;;;;;8.93;5.90;;;;;;;25.19;54.71;96857.34;5062864;28;20277;-72
2022/06/22 00:57:33;;;;;;;10.83;5.90;;;;;;;25.18;54.21;96858.41;5047613;28;20456;-72
2022/06/22 01:00:04;;;;;;;10.00;5.53;;;;;;;25.23;54.04;96857.63;5064791;28;20939;-74
2022/06/22 01:02:42;;;;;;;7.30;6.10;;;;;;;25.27;54.59;96859.53;5055262;28;20833;-72
2022/06/22 01:05:39;;;;;;;7.07;6.30;;;;;;;25.28;54.58;96869.19;5056232;28;20460;-73
2022/06/22 01:08:20;;;;;;;5.87;5.20;;;;;;;25.26;54.52;96852.56;5051590;28;20927;-72
2022/06/22 01:10:58;;;;;;;6.53;5.90;;;;;;;25.32;54.40;96866.03;5055719;28;20931;-71
2022/06/22 01:13:38;;;;;;;6.73;6.00;;;;;;;25.36;54.31;96878.66;5063014;28;20507;-71
2022/06/22 01:16:08;;;;;;;7.90;6.10;;;;;;;25.35;53.92;96876.22;5063166;28;20464;-72
2022/06/22 01:18:42;;;;;;;10.23;5.60;;;;;;;25.32;54.42;96877.53;5063047;28;20923;-73
2022/06/22 01:21:29;;;;;;;6.67;5.60;;;;;;;25.35;54.20;96873.53;5057798;28;20429;-72
2022/06/22 01:24:22;;;;;;;7.77;5.77;;;;;;;25.39;54.51;96880.81;5062202;28;20524;-72
2022/06/22 01:27:06;;;;;;;6.50;5.70;;;;;;;25.39;54.43;96880.00;5050061;28;20966;-72
2022/06/22 01:29:32;;;;;;;7.30;6.40;;;;;;;25.25;54.61;96864.34;5047457;28;20455;-72
2022/06/22 01:32:11;;;;;;;6.37;5.77;;;;;;;25.28;54.94;96871.88;5061553;28;20456;-72
2022/06/22 01:34:43;;;;;;;6.60;6.10;;;;;;;25.29;54.87;96873.50;5051638;28;20200;-73
2022/06/22 01:37:19;;;;;;;6.87;6.23;;;;;;;25.27;54.68;96878.31;5044024;28;20525;-72
2022/06/22 01:39:44;;;;;;;7.40;6.20;;;;;;;25.29;54.87;96883.41;5066647;28;20503;-72
2022/06/22 01:42:20;;;;;;;8.53;6.00;;;;;;;25.22;55.28;96883.63;5063122;28;20543;-72
2022/06/22 01:44:52;;;;;;;11.53;6.23;;;;;;;25.23;54.78;96893.28;5064190;28;20194;-73
2022/06/22 01:47:24;;;;;;;6.40;5.90;;;;;;;25.25;54.99;96888.47;5064024;28;20466;-73
2022/06/22 01:49:53;;;;;;;6.80;5.77;;;;;;;25.27;55.13;96881.00;5056960;28;20508;-73
2022/06/22 01:52:31;;;;;;;6.00;5.50;;;;;;;25.23;55.05;96898.63;5052776;28;20794;-73
2022/06/22 01:55:02;;;;;;;8.00;5.67;;;;;;;25.19;55.74;96900.22;5056424;28;21149;-72
2022/06/22 01:57:35;;;;;;;8.37;6.23;;;;;;;25.08;56.05;96896.63;5045508;28;21033;-73
2022/06/22 02:00:16;;;;;;;8.33;5.97;;;;;;;24.93;56.30;96899.97;5065151;28;20499;-73
2022/06/22 02:02:44;;;;;;;6.87;6.23;;;;;;;24.93;56.08;96883.91;5045321;28;20959;-73
2022/06/22 02:05:38;;;;;;;8.37;6.30;;;;;;;24.91;56.22;96861.91;5063377;28;20449;-73
2022/06/22 02:08:14;;;;;;;6.77;6.13;;;;;;;24.98;56.44;96840.25;5058159;28;20421;-73
2022/06/22 02:10:48;;;;;;;10.37;6.10;;;;;;;25.01;56.01;96826.34;5055490;28;20562;-74
2022/06/22 02:13:17;;;;;;;5.70;5.20;;;;;;;25.04;55.74;96822.34;5062937;28;20432;-73
2022/06/22 02:15:49;;;;;;;7.10;6.03;;;;;;;25.04;55.94;96833.88;5062576;28;20471;-72
2022/06/22 02:18:19;;;;;;;6.50;5.90;;;;;;;25.08;55.66;96855.59;5066747;28;20424;-71
2022/06/22 02:20:45;;;;;;;6.30;5.70;;;;;;;25.05;55.52;96864.19;5060913;28;20428;-72
2022/06/22 02:23:19;;;;;;;10.07;5.90;;;;;;;25.00;55.72;96863.06;5070696;28;20455;-72
2022/06/22 02:25:56;;;;;;;12.60;7.03;;;;;;;24.92;56.34;96862.69;5062581;28;20579;-73
2022/06/22 02:28:21;;;;;;;10.63;5.80;;;;;;;24.97;56.41;96865.44;5069216;28;20436;-72
2022/06/22 02:30:47;;;;;;;5.83;5.33;;;;;;;24.99;56.30;96864.13;5062697;28;20508;-72
2022/06/22 02:33:13;;;;;;;8.23;6.60;;;;;;;25.01;56.31;96866.56;5070179;28;20440;-72
2022/06/22 02:35:40;;;;;;;7.90;6.00;;;;;;;24.99;56.24;96866.78;5051357;28;20637;-72
2022/06/22 02:38:08;;;;;;;7.50;6.80;;;;;;;24.96;56.65;96858.47;5069869;28;20467;-71
2022/06/22 02:44:29;;;;;;;8.10;6.83;;;;;;;24.96;57.00;96863.81;5062421;28;20975;-72
2022/06/22 02:46:12;;;;;;;9.53;6.73;;;;;;;24.95;57.05;96854.97;5060651;28;20444;-72
2022/06/22 02:48:39;;;;;;;12.43;6.73;;;;;;;24.99;57.08;96874.84;5066011;28;20440;-73
2022/06/22 02:51:20;;;;;;;10.23;7.20;;;;;;;25.03;57.23;96863.63;5060692;28;20433;-72
2022/06/22 02:53:47;;;;;;;9.00;6.97;;;;;;;24.98;57.52;96859.81;5052784;28;20428;-72
2022/06/22 02:56:18;;;;;;;8.47;7.00;;;;;;;24.88;58.18;96850.88;5061365;28;20611;-72
2022/06/22 02:58:45;;;;;;;7.10;6.50;;;;;;;24.65;59.22;96855.44;5065725;28;20992;-72
2022/06/22 03:01:16;;;;;;;8.83;7.10;;;;;;;24.68;58.76;96858.44;5065737;28;20437;-72
2022/06/22 03:03:53;;;;;;;8.13;6.70;;;;;;;24.72;58.79;96861.44;5064315;28;20432;-72
2022/06/22 03:06:21;;;;;;;8.90;6.77;;;;;;;24.74;58.90;96845.09;5062043;28;20459;-72
2022/06/22 03:08:46;;;;;;;10.57;5.90;;;;;;;24.77;58.90;96855.31;5065145;28;20439;-72
2022/06/22 03:11:12;;;;;;;8.77;7.20;;;;;;;24.78;58.60;96863.09;5068476;28;20426;-72
2022/06/22 03:13:56;;;;;;;11.93;6.67;;;;;;;24.79;58.40;96848.66;5067346;28;20182;-72
2022/06/22 03:16:27;;;;;;;9.37;7.10;;;;;;;24.77;58.11;96858.81;5060846;28;20967;-72
2022/06/22 03:18:54;;;;;;;11.20;7.67;;;;;;;24.59;58.93;96853.78;5067138;28;20435;-72
2022/06/22 03:21:20;;;;;;;8.20;7.37;;;;;;;24.55;59.00;96848.13;5062689;28;20488;-72
2022/06/22 03:24:00;;;;;;;7.10;6.40;;;;;;;24.54;59.30;96846.50;5065406;28;20433;-73
2022/06/22 03:26:31;;;;;;;9.67;7.13;;;;;;;24.47;59.78;96854.72;5064201;28;20221;-72
2022/06/22 03:29:02;;;;;;;9.60;7.33;;;;;;;24.50;59.37;96862.25;5064973;28;21138;-71
2022/06/22 03:31:57;;;;;;;9.80;7.20;;;;;;;24.50;59.54;96862.25;5054523;28;20453;-71
2022/06/22 03:34:45;;;;;;;8.33;7.47;;;;;;;24.53;59.20;96863.63;5068175;28;20448;-72
2022/06/22 03:37:16;;;;;;;7.77;7.00;;;;;;;24.49;59.36;96855.28;5050695;28;20473;-70
2022/06/22 03:39:45;;;;;;;8.33;6.80;;;;;;;24.46;59.37;96854.94;5069141;28;20503;-72
2022/06/22 03:42:20;;;;;;;9.03;7.83;;;;;;;24.44;59.52;96857.09;5062131;28;20422;-71
2022/06/22 03:44:52;;;;;;;9.60;7.50;;;;;;;24.44;58.92;96855.22;5055002;28;20966;-71
2022/06/22 03:47:22;;;;;;;7.97;7.17;;;;;;;24.47;58.75;96854.72;5047784;28;20437;-71
2022/06/22 03:49:58;;;;;;;8.13;7.33;;;;;;;24.51;58.70;96855.03;5048380;28;20488;-72
2022/06/22 03:52:43;;;;;;;8.00;7.20;;;;;;;24.56;58.69;96859.63;5050154;28;20429;-73
2022/06/22 03:55:15;;;;;;;8.53;6.60;;;;;;;24.60;58.56;96860.75;5038249;28;20433;-72
2022/06/22 03:57:43;;;;;;;8.60;6.60;;;;;;;24.62;58.27;96864.78;5052741;28;20472;-72
2022/06/22 04:00:11;;;;;;;9.90;7.40;;;;;;;24.63;58.60;96870.97;5052458;28;20846;-72
2022/06/22 04:02:37;;;;;;;9.90;7.80;;;;;;;24.58;58.52;96869.00;5051591;28;20840;-72
2022/06/22 04:05:03;;;;;;;14.63;8.00;;;;;;;24.59;58.55;96870.63;5049809;28;20437;-72
2022/06/22 04:07:34;;;;;;;11.17;7.80;;;;;;;24.62;58.81;96877.38;5051564;28;20186;-73
2022/06/22 04:10:00;;;;;;;9.70;8.00;;;;;;;24.57;58.95;96869.28;5051519;28;20441;-71
2022/06/22 04:12:30;;;;;;;8.10;7.30;;;;;;;24.43;59.86;96868.84;5051118;28;20440;-71
2022/06/22 04:15:17;;;;;;;8.57;7.23;;;;;;;24.42;60.12;96868.03;5050310;28;20187;-72
2022/06/22 04:17:47;;;;;;;9.50;7.33;;;;;;;24.48;59.95;96871.59;5050438;28;20525;-71
2022/06/22 04:20:50;;;;;;;7.67;6.80;;;;;;;24.50;59.70;96866.78;5050894;28;20434;-71
2022/06/22 04:23:42;;;;;;;10.30;7.83;;;;;;;24.52;59.75;96862.00;5048234;28;20478;-72
2022/06/22 04:26:28;;;;;;;8.20;7.40;;;;;;;24.45;60.05;96872.06;5052390;28;20449;-72
2022/06/22 04:29:16;;;;;;;10.60;6.90;;;;;;;24.47;60.04;96872.63;5049849;28;20916;-72
2022/06/22 04:31:54;;;;;;;7.63;6.93;;;;;;;24.48;60.00;96874.25;5043961;28;20468;-73
2022/06/22 04:34:29;;;;;;;10.17;7.50;;;;;;;24.45;60.18;96875.56;5049330;28;20932;-74
2022/06/22 04:36:56;;;;;;;8.90;7.50;;;;;;;24.41;60.34;96879.00;5051940;28;20476;-72
2022/06/22 04:39:27;;;;;;;7.93;6.77;;;;;;;24.37;60.64;96876.81;5049446;28;21567;-72
2022/06/22 04:41:53;;;;;;;7.67;6.90;;;;;;;24.32;61.25;96879.41;5050607;28;21065;-72
2022/06/22 04:44:22;;;;;;;9.57;7.53;;;;;;;24.21;61.29;96886.53;5042456;28;20430;-73
2022/06/22 04:46:52;;;;;;;10.00;7.50;;;;;;;24.24;61.23;96887.91;5050269;28;20457;-72
2022/06/22 04:49:26;;;;;;;9.93;7.17;;;;;;;24.35;60.77;96884.28;5049347;28;20433;-73
2022/06/22 04:52:02;;;;;;;8.80;7.00;;;;;;;24.43;60.56;96890.28;5047505;28;20441;-73
2022/06/22 04:54:38;;;;;;;7.73;7.00;;;;;;;24.47;60.42;96892.22;5041205;28;20444;-73
2022/06/22 04:57:14;;;;;;;9.13;7.87;;;;;;;24.51;60.36;96895.19;5045158;28;20549;-71
2022/06/22 04:59:41;;;;;;;13.63;8.03;;;;;;;24.53;60.19;96898.44;5049562;28;20516;-73
2022/06/22 05:02:10;;;;;;;10.17;9.17;;;;;;;24.59;60.07;96897.41;5041761;28;20456;-72
2022/06/22 05:04:38;;;;;;;10.20;8.33;;;;;;;24.60;59.59;96899.03;5041185;28;20513;-72
2022/06/22 05:07:26;;;;;;;13.20;8.70;;;;;;;24.52;60.35;96894.94;5038918;28;20454;-74
2022/06/22 05:10:06;;;;;;;9.67;7.60;;;;;;;24.55;60.57;96899.00;5042247;28;20430;-74
2022/06/22 05:12:44;;;;;;;8.63;7.83;;;;;;;24.59;60.95;96897.41;5048658;28;20801;-74
2022/06/22 05:15:18;;;;;;;18.03;8.43;;;;;;;24.60;61.13;96888.31;5042267;28;20975;-74
2022/06/22 05:17:44;;;;;;;10.07;7.77;;;;;;;24.59;61.14;96891.28;5016054;28;20515;-73
2022/06/22 05:20:18;;;;;;;11.13;8.30;;;;;;;24.58;60.98;96889.66;5042812;28;20427;-73
2022/06/22 05:22:44;;;;;;;8.10;7.43;;;;;;;24.65;61.13;96901.78;5035859;28;20649;-74
2022/06/22 05:25:11;;;;;;;8.80;7.67;;;;;;;24.74;60.44;96904.03;5031550;28;20434;-73
2022/06/22 05:27:53;;;;;;;10.47;8.20;;;;;;;24.63;60.18;96903.09;5035619;28;20180;-73
2022/06/22 05:30:19;;;;;;;9.90;8.43;;;;;;;24.78;60.23;96903.28;5043144;28;20433;-73
2022/06/22 05:32:52;;;;;;;9.30;8.40;;;;;;;24.84;59.06;96915.69;5035655;28;20449;-73
2022/06/22 05:35:24;;;;;;;8.83;8.03;;;;;;;24.95;59.38;96911.22;5043971;28;21023;-73
2022/06/22 05:37:53;;;;;;;8.80;7.80;;;;;;;25.09;58.91;96916.19;5041737;28;20797;-73
2022/06/22 05:40:21;;;;;;;8.83;8.00;;;;;;;25.22;59.17;96920.34;5042359;28;20436;-73
2022/06/22 05:42:47;;;;;;;9.43;8.53;;;;;;;25.26;58.48;96921.47;5044395;28;20503;-73
2022/06/22 05:45:16;;;;;;;8.20;7.40;;;;;;;25.19;58.66;96921.69;5039392;28;20500;-73
2022/06/22 05:47:42;;;;;;;8.80;7.47;;;;;;;25.22;59.02;96926.50;5036972;28;20188;-74
2022/06/22 05:50:12;;;;;;;12.00;7.53;;;;;;;25.20;59.22;96928.66;5036306;28;20963;-74
2022/06/22 05:52:52;;;;;;;9.63;7.60;;;;;;;25.14;58.79;96929.66;5037458;28;20428;-72
2022/06/22 05:55:45;;;;;;;13.33;7.50;;;;;;;25.14;59.31;96929.66;5034598;28;20457;-74
2022/06/22 05:58:20;;;;;;;8.00;7.20;;;;;;;25.12;58.73;96926.41;5040714;28;20872;-74
2022/06/22 06:00:50;;;;;;;8.23;7.43;;;;;;;25.15;58.62;96936.66;5039186;28;20820;-73
2022/06/22 06:03:24;;;;;;;10.90;7.80;;;;;;;25.12;57.99;96937.97;5036361;28;20462;-74
2022/06/22 06:05:51;;;;;;;9.23;8.23;;;;;;;25.16;57.80;96938.25;5037004;28;20446;-74
2022/06/22 06:08:27;;;;;;;9.00;7.10;;;;;;;25.23;57.59;96938.84;5041029;28;20430;-73
2022/06/22 06:10:52;;;;;;;9.70;7.70;;;;;;;25.32;57.27;96936.53;5033383;28;20846;-74
2022/06/22 06:13:24;;;;;;;11.40;7.07;;;;;;;25.39;57.38;96939.81;5043916;28;20517;-74
2022/06/22 06:15:53;;;;;;;8.77;7.60;;;;;;;25.44;56.88;96939.09;5041356;28;20203;-73
2022/06/22 06:18:22;;;;;;;15.40;7.60;;;;;;;25.44;56.81;96939.88;5039403;28;20430;-73
2022/06/22 06:20:56;;;;;;;13.50;8.03;;;;;;;25.46;56.80;96942.31;5047455;28;20430;-71
2022/06/22 06:23:33;;;;;;;8.70;7.20;;;;;;;25.41;57.31;96955.69;5044598;28;20434;-72
2022/06/22 06:29:30;;;;;;;8.43;7.57;;;;;;;25.38;57.50;96956.16;5041123;28;20441;-72
2022/06/22 06:32:03;;;;;;;9.73;7.73;;;;;;;25.37;57.03;96963.41;5038899;28;20410;-72
2022/06/22 06:34:34;;;;;;;11.13;7.10;;;;;;;25.40;56.88;96965.56;5040310;28;20787;-74
2022/06/22 06:37:14;;;;;;;8.50;7.60;;;;;;;25.43;56.72;96965.09;5044864;28;20489;-72
2022/06/22 06:39:44;;;;;;;8.33;7.23;;;;;;;25.41;56.23;96961.06;5036289;28;20948;-72
2022/06/22 06:42:34;;;;;;;16.97;7.67;;;;;;;25.42;56.63;96970.72;5046844;28;20426;-72
2022/06/22 06:45:00;;;;;;;11.87;7.57;;;;;;;25.44;56.46;96976.66;5040757;28;20837;-73
2022/06/22 06:47:32;;;;;;;13.50;7.30;;;;;;;25.45;56.77;96980.94;5047512;28;20451;-72
2022/06/22 06:50:22;;;;;;;8.63;7.07;;;;;;;25.44;57.39;96979.31;5035838;28;20193;-72
2022/06/22 06:53:02;;;;;;;9.10;7.60;;;;;;;25.39;57.77;96981.91;5047298;28;20441;-71
2022/06/22 06:55:41;;;;;;;12.53;7.00;;;;;;;25.35;57.94;96978.13;5044161;28;20441;-71
2022/06/22 06:58:11;;;;;;;9.70;7.37;;;;;;;25.26;58.65;96985.81;5047564;28;20440;-70
2022/06/22 07:00:38;;;;;;;9.90;7.50;;;;;;;25.21;58.99;96983.88;5041256;28;20453;-72
2022/06/22 07:03:07;;;;;;;18.30;8.30;;;;;;;25.19;59.66;96990.56;5035635;28;20434;-72
2022/06/22 07:05:32;;;;;;;10.17;8.03;;;;;;;25.15;60.50;96990.25;5041136;28;20464;-69
2022/06/22 07:08:08;;;;;;;10.40;7.70;;;;;;;25.03;61.54;96985.03;5046979;28;20439;-71
2022/06/22 07:10:41;;;;;;;15.50;8.73;;;;;;;25.04;62.32;96980.50;5048471;28;20182;-71
2022/06/22 07:13:12;;;;;;;12.50;9.10;;;;;;;25.07;62.93;96985.34;5054900;28;20436;-70
2022/06/22 07:15:40;;;;;;;12.30;8.40;;;;;;;25.08;62.99;96985.09;5026712;28;20827;-70
2022/06/22 07:18:17;;;;;;;15.87;8.83;;;;;;;25.06;63.60;96981.84;5045803;28;20433;-70
2022/06/22 07:20:46;;;;;;;13.13;8.97;;;;;;;25.04;63.50;96988.53;5051324;28;20429;-71
2022/06/22 07:23:19;;;;;;;9.77;8.67;;;;;;;25.03;63.59;96979.66;5039929;28;20430;-70
2022/06/22 07:25:48;;;;;;;8.90;8.00;;;;;;;25.00;63.93;96972.94;5047998;28;20902;-71
2022/06/22 07:28:27;;;;;;;11.60;8.83;;;;;;;24.98;64.20;96963.53;5043891;28;20433;-70
2022/06/22 07:30:57;;;;;;;9.07;8.17;;;;;;;24.93;63.54;96961.63;5046105;28;20846;-71
2022/06/22 07:33:36;;;;;;;10.07;8.43;;;;;;;24.88;63.49;96948.16;5044492;28;20449;-71
2022/06/22 07:36:23;;;;;;;9.43;8.00;;;;;;;24.86;62.81;96939.56;5050787;28;20830;-73
2022/06/22 07:39:06;;;;;;;13.20;8.27;;;;;;;24.85;63.22;96945.97;5045432;28;20429;-71
2022/06/22 07:41:32;;;;;;;9.80;8.30;;;;;;;24.83;62.96;96945.41;5043521;28;20479;-71
2022/06/22 07:44:17;;;;;;;11.83;8.23;;;;;;;24.79;62.44;96945.09;5040524;28;20980;-71
2022/06/22 07:46:44;;;;;;;10.97;8.00;;;;;;;24.82;62.51;96943.81;5050125;28;20199;-71
2022/06/22 07:49:17;;;;;;;19.33;7.93;;;;;;;24.86;63.14;96955.63;5052632;28;20959;-71
2022/06/22 07:51:47;;;;;;;13.57;7.80;;;;;;;24.87;62.84;96967.97;5050939;28;20451;-71
2022/06/22 07:54:29;;;;;;;18.83;8.57;;;;;;;24.94;63.00;96971.28;5051611;28;20426;-71
2022/06/22 07:57:02;;;;;;;31.77;9.63;;;;;;;25.02;62.65;96972.69;5048996;28;21008;-72
2022/06/22 07:59:33;;;;;;;63.33;11.57;;;;;;;25.06;61.72;96981.84;5043744;28;20455;-71
2022/06/22 08:02:03;;;;;;;69.10;12.30;;;;;;;25.13;60.26;96976.28;5047994;28;20421;-72
2022/06/22 08:04:34;;;;;;;16.30;9.73;;;;;;;25.17;60.39;96981.94;5035533;28;20424;-72
2022/06/22 08:07:12;;;;;;;16.43;8.27;;;;;;;25.17;60.15;96988.13;5038946;28;20545;-71
2022/06/22 08:09:55;;;;;;;16.73;8.13;;;;;;;25.15;59.14;96977.66;5044315;28;20422;-71
2022/06/22 08:12:53;;;;;;;20.93;8.87;;;;;;;25.13;57.77;96984.34;5044058;28;20926;-72
2022/06/22 08:15:20;;;;;;;11.73;8.50;;;;;;;25.15;58.11;96977.66;5039713;28;20469;-71
2022/06/22 08:17:54;;;;;;;16.70;8.90;;;;;;;25.20;58.48;96987.66;5037390;28;20523;-71
2022/06/22 08:20:23;;;;;;;13.60;9.23;;;;;;;25.26;57.79;96975.91;5043666;28;20439;-72
2022/06/22 08:22:49;;;;;;;20.40;9.13;;;;;;;25.27;58.40;96976.69;5039489;28;20431;-72
2022/06/22 08:25:17;;;;;;;8.60;7.80;;;;;;;25.28;58.72;96979.13;5047164;28;20472;-69
2022/06/22 08:27:43;;;;;;;12.33;8.00;;;;;;;25.28;58.70;96972.94;5040893;28;20834;-70
2022/06/22 08:30:10;;;;;;;19.03;8.30;;;;;;;25.27;57.65;96982.06;5046140;28;20857;-71
2022/06/22 08:32:38;;;;;;;12.83;8.00;;;;;;;25.24;58.38;96982.59;5040884;28;20425;-70
2022/06/22 08:35:07;;;;;;;16.57;8.00;;;;;;;25.25;58.22;96982.31;5048142;28;20440;-70
2022/06/22 08:37:38;;;;;;;12.80;8.37;;;;;;;25.24;58.00;96978.00;5043520;28;20458;-70
2022/06/22 08:40:21;;;;;;;12.00;8.10;;;;;;;25.28;58.94;96983.69;5041083;28;20440;-70
2022/06/22 08:43:01;;;;;;;12.03;7.27;;;;;;;25.36;58.06;96982.41;5046674;28;20418;-70
2022/06/22 08:45:48;;;;;;;19.40;8.50;;;;;;;25.39;57.98;96989.97;5042221;28;20445;-70
2022/06/22 08:48:35;;;;;;;11.63;8.67;;;;;;;25.41;58.42;96988.66;5050942;28;20516;-71
2022/06/22 08:51:22;;;;;;;11.30;8.90;;;;;;;25.45;57.54;96997.84;5051394;28;20433;-69
2022/06/22 08:53:51;;;;;;;15.67;9.20;;;;;;;25.44;57.28;97008.81;5048461;28;20425;-71
2022/06/22 08:56:38;;;;;;;14.57;8.70;;;;;;;25.45;56.41;96997.03;5050736;28;20477;-70
2022/06/22 08:59:39;;;;;;;11.10;7.57;;;;;;;25.35;55.59;97000.38;5051034;28;20436;-73
2022/06/22 09:02:33;;;;;;;19.13;7.73;;;;;;;25.38;55.10;97007.94;5031425;28;20433;-71
2022/06/22 09:05:16;;;;;;;11.00;8.20;;;;;;;25.44;55.91;97009.63;5051034;28;20461;-70
2022/06/22 09:08:10;;;;;;;13.97;8.43;;;;;;;25.41;56.23;97009.31;5044989;28;20479;-69
2022/06/22 09:10:45;;;;;;;16.63;7.60;;;;;;;25.46;56.04;97014.72;5046364;28;20499;-71
2022/06/22 09:13:41;;;;;;;11.37;7.80;;;;;;;25.52;56.81;97015.63;5060434;28;20805;-71
2022/06/22 09:16:28;;;;;;;17.27;7.50;;;;;;;25.53;55.98;97009.97;5034772;28;20556;-70
2022/06/22 09:18:58;;;;;;;26.73;9.17;;;;;;;25.52;55.73;97008.34;5050987;28;20508;-70
2022/06/22 09:21:43;;;;;;;54.73;11.00;;;;;;;25.50;56.42;97013.16;5049267;28;20939;-70
2022/06/22 09:24:22;;;;;;;21.30;8.83;;;;;;;25.53;57.32;97015.34;5050789;28;20430;-70
2022/06/22 09:27:02;;;;;;;20.97;8.90;;;;;;;25.56;57.93;97012.16;5049996;28;20960;-71
2022/06/22 09:29:40;;;;;;;20.00;8.90;;;;;;;25.64;58.22;97015.44;5047372;28;20990;-70
2022/06/22 09:32:30;;;;;;;14.83;9.50;;;;;;;25.68;58.44;97013.88;5050603;28;20452;-70
2022/06/22 09:35:14;;;;;;;11.30;8.03;;;;;;;25.66;57.65;97014.13;5047940;28;20441;-70
2022/06/22 09:38:01;;;;;;;12.50;9.03;;;;;;;25.69;57.95;97021.66;5045541;28;20487;-72
2022/06/22 09:40:45;;;;;;;9.80;8.70;;;;;;;25.71;58.23;97010.66;5043594;28;20842;-70
2022/06/22 09:44:02;;;;;;;11.70;8.60;;;;;;;25.69;58.41;97008.25;5050188;28;20794;-70
2022/06/22 09:46:46;;;;;;;10.50;8.70;;;;;;;25.69;59.72;97002.88;5034401;28;20460;-70
2022/06/22 09:49:33;;;;;;;13.50;8.53;;;;;;;25.75;60.27;96998.38;5048246;28;20428;-71
2022/06/22 09:52:04;;;;;;;9.10;8.23;;;;;;;25.76;59.88;97010.72;5049181;28;20934;-71
2022/06/22 09:57:45;;;;;;;12.40;9.20;;;;;;;25.80;60.10;97014.53;5049866;28;20465;-71
2022/06/22 10:00:11;;;;;;;21.67;8.60;;;;;;;25.82;60.97;97017.75;5042363;28;20429;-71
2022/06/22 10:03:01;;;;;;;17.43;8.87;;;;;;;25.79;60.66;97023.63;5042422;28;20433;-71
2022/06/22 10:05:49;;;;;;;14.27;8.83;;;;;;;25.81;60.50;97034.94;5043312;28;20462;-72
2022/06/22 10:08:27;;;;;;;9.63;8.63;;;;;;;25.84;60.07;97029.03;5032131;28;20483;-71
2022/06/22 10:11:10;;;;;;;9.77;8.70;;;;;;;25.80;59.72;97036.00;5051331;28;20460;-71
2022/06/22 10:13:48;;;;;;;14.23;7.97;;;;;;;25.80;60.85;97044.03;5043769;28;20413;-72
2022/06/22 10:16:35;;;;;;;9.27;8.37;;;;;;;25.71;60.26;97056.28;5048456;28;20486;-72
2022/06/22 10:19:18;;;;;;;12.43;8.90;;;;;;;25.67;59.57;97058.66;5050462;28;20783;-71
2022/06/22 10:22:13;;;;;;;8.83;7.90;;;;;;;25.53;57.59;97060.94;5045159;28;20502;-71
2022/06/22 10:25:16;;;;;;;8.93;7.10;;;;;;;25.58;57.04;97074.41;5044505;28;20429;-73
2022/06/22 10:28:22;;;;;;;10.73;7.83;;;;;;;25.52;59.04;97072.75;5046826;28;20421;-73
2022/06/22 10:31:07;;;;;;;11.40;8.80;;;;;;;25.54;60.47;97073.31;5045829;28;20488;-71
2022/06/22 10:33:41;;;;;;;10.93;8.43;;;;;;;25.40;60.50;97077.41;5042056;28;20433;-70
2022/06/22 10:36:27;;;;;;;9.10;8.20;;;;;;;25.09;60.11;97080.53;5052407;28;20461;-70
2022/06/22 10:39:07;;;;;;;9.50;8.60;;;;;;;25.00;60.46;97074.00;5052782;28;20483;-73
2022/06/22 10:48:06;;;;;;;8.60;7.07;;;;;;;24.81;59.06;97092.25;5031478;28;20422;-70
2022/06/22 10:50:43;;;;;;;11.13;6.93;;;;;;;24.79;60.46;97094.34;5045273;28;20445;-71
2022/06/22 10:53:47;;;;;;;8.43;6.73;;;;;;;24.78;61.55;97090.03;5052481;28;20924;-71
2022/06/22 10:56:28;;;;;;;15.63;7.50;;;;;;;24.81;61.66;97087.69;5043242;28;20885;-71
2022/06/22 10:58:59;;;;;;;11.77;7.60;;;;;;;24.79;62.66;97089.78;5053631;28;20429;-70
2022/06/22 11:01:37;;;;;;;9.40;7.07;;;;;;;24.76;62.31;97090.28;5053261;28;20417;-71
2022/06/22 11:04:30;;;;;;;10.90;8.50;;;;;;;24.68;61.73;97096.88;5053329;28;20504;-70
2022/06/22 11:07:41;;;;;;;13.07;7.97;;;;;;;24.76;62.20;97094.84;5048839;28;20908;-70
2022/06/22 11:10:21;;;;;;;9.80;8.80;;;;;;;24.82;62.58;97088.50;5051132;28;20843;-69
2022/06/22 11:12:48;;;;;;;13.20;8.53;;;;;;;24.74;63.06;97096.94;5050841;28;20421;-71
2022/06/22 11:15:39;;;;;;;9.20;7.67;;;;;;;24.82;62.80;97094.66;5051975;28;20924;-72
2022/06/22 11:18:31;;;;;;;10.90;8.40;;;;;;;24.74;63.49;97097.78;5049621;28;21036;-70
2022/06/22 11:21:27;;;;;;;11.90;8.30;;;;;;;24.72;64.44;97096.38;5053118;28;20508;-71
2022/06/22 11:23:55;;;;;;;11.90;8.13;;;;;;;24.81;64.83;97092.25;5053262;28;20908;-72
2022/06/22 11:32:56;;;;;;;15.10;9.10;;;;;;;24.87;64.46;97099.28;5052673;28;20550;-72
2022/06/22 11:35:43;;;;;;;9.47;8.40;;;;;;;24.87;65.05;97103.84;5054363;28;20453;-70
2022/06/22 11:38:28;;;;;;;11.37;8.90;;;;;;;24.94;64.85;97101.78;5053283;28;20422;-70
2022/06/22 11:41:02;;;;;;;11.63;9.50;;;;;;;25.00;64.45;97098.13;5056232;28;20855;-72
2022/06/22 11:43:37;;;;;;;12.20;8.70;;;;;;;25.02;64.48;97101.34;5040594;28;20429;-70
2022/06/22 11:46:28;;;;;;;12.87;9.10;;;;;;;25.05;65.43;97103.53;5049224;28;20490;-71
2022/06/22 11:49:16;;;;;;;11.60;8.60;;;;;;;25.15;65.25;97108.22;5051374;28;20514;-71
2022/06/22 11:52:02;;;;;;;12.67;9.30;;;;;;;25.11;64.01;97107.91;5052601;28;20433;-69
2022/06/22 11:54:31;;;;;;;16.07;8.63;;;;;;;25.09;63.28;97104.66;5044709;28;20447;-71
2022/06/22 11:56:57;;;;;;;12.97;8.23;;;;;;;25.11;63.21;97102.56;5047906;28;20484;-71
2022/06/22 11:59:48;;;;;;;12.13;8.00;;;;;;;25.16;63.24;97101.81;5052006;28;20436;-71
2022/06/22 12:02:19;;;;;;;12.23;9.40;;;;;;;25.19;63.27;97087.91;5052450;28;20996;-71
2022/06/22 12:05:19;;;;;;;15.03;8.13;;;;;;;25.14;63.06;97079.78;5052408;28;20799;-73
2022/06/22 12:08:06;;;;;;;18.20;7.57;;;;;;;25.27;62.87;97081.25;5046242;28;20472;-71
2022/06/22 12:11:04;;;;;;;15.10;6.90;;;;;;;25.20;62.62;97080.66;5048508;28;20608;-70
2022/06/22 12:16:52;;;;;;;12.00;7.20;;;;;;;25.33;62.53;97071.44;5045756;28;20469;-70
2022/06/22 12:19:48;;;;;;;13.33;5.87;;;;;;;25.37;61.68;97076.03;5050553;28;20425;-71
2022/06/22 12:22:24;;;;;;;15.03;6.83;;;;;;;25.34;61.30;97073.03;5040457;28;20475;-72
2022/06/22 12:25:02;;;;;;;9.60;5.80;;;;;;;25.39;60.87;97067.75;5051876;28;20433;-71
2022/06/22 12:27:39;;;;;;;9.53;5.67;;;;;;;25.41;60.87;97061.09;5027924;28;20916;-71
2022/06/22 12:30:17;;;;;;;13.40;5.40;;;;;;;25.30;60.39;97056.63;5047374;28;20480;-71
2022/06/22 12:33:00;;;;;;;13.90;5.27;;;;;;;25.25;59.56;97048.56;5047870;28;20512;-71
2022/06/22 12:35:36;;;;;;;13.57;5.10;;;;;;;25.25;60.29;97051.25;5048403;28;20464;-71
2022/06/22 12:38:22;;;;;;;18.73;5.13;;;;;;;25.22;59.82;97049.84;5050145;28;20421;-70